Terminal Aerodrome Forecast
Issued by NWS Cleveland, OH

Home | Current Version | Previous Version | Graphics & Text | Print | Product List | Glossary Off
Versions: 1 2 3 4 5 6 7 8 9 10 11 12 13 14 15 16 17 18 19 20 21 22 23

000
FTUS41 KCLE 221700
TAFCAK
TAF
KCAK 221731Z 2218/2318 01011KT P6SM OVC015
     FM222000 36011KT P6SM OVC025
     FM222300 36010KT P6SM BKN030
     FM230000 36010KT P6SM BKN035
     FM230300 36004KT P6SM SCT035
     FM230900 33005KT 5SM BR SCT040=

USA.gov is the U.S. government's official web portal to all federal, state and local government web resources and services.